createdAt,value
2023-11-12T00:04:35.396Z,6.40
2023-11-12T00:09:58.227Z,6.48
2023-11-12T00:15:21.862Z,6.89
2023-11-12T00:20:46.245Z,6.26
2023-11-12T00:26:09.201Z,6.47
2023-11-12T00:31:32.170Z,6.63
2023-11-12T00:36:56.449Z,6.05
2023-11-12T00:42:19.659Z,6.38
2023-11-12T00:47:42.754Z,6.19
2023-11-12T00:53:07.113Z,6.59
2023-11-12T00:58:30.049Z,6.38
2023-11-12T01:03:53.121Z,6.20
2023-11-12T01:09:17.471Z,6.41
2023-11-12T01:14:40.531Z,6.63
2023-11-12T01:20:04.449Z,6.58
2023-11-12T01:25:28.966Z,6.79
2023-11-12T01:30:52.448Z,6.56
2023-11-12T01:36:15.582Z,7.02
2023-11-12T01:41:40.014Z,7.11
2023-11-12T01:47:04.662Z,7.41
2023-11-12T01:52:27.855Z,6.57
2023-11-12T01:57:53.953Z,6.66
2023-11-12T02:03:22.366Z,6.35
2023-11-12T02:08:46.180Z,6.92
2023-11-12T02:14:11.230Z,7.18
2023-11-12T02:19:34.259Z,6.49
2023-11-12T02:24:58.538Z,7.00
2023-11-12T02:30:21.709Z,7.00
2023-11-12T02:35:47.612Z,7.10
2023-11-12T02:41:13.974Z,6.57
2023-11-12T02:46:37.147Z,6.73
2023-11-12T02:52:00.076Z,6.69
2023-11-12T02:57:24.510Z,6.51
2023-11-12T03:02:48.006Z,6.76
2023-11-12T03:08:10.965Z,6.78
2023-11-12T03:13:35.334Z,6.78
2023-11-12T03:18:58.304Z,6.52
2023-11-12T03:24:21.262Z,6.90
2023-11-12T03:29:47.139Z,6.89
2023-11-12T03:35:10.495Z,6.99
2023-11-12T03:40:33.549Z,7.11
2023-11-12T03:45:57.848Z,7.00
2023-11-12T03:51:20.875Z,7.21
2023-11-12T03:56:43.885Z,7.10
2023-11-12T04:02:08.135Z,7.37
2023-11-12T04:07:31.187Z,7.42
2023-11-12T04:12:54.188Z,7.05
2023-11-12T04:18:18.586Z,6.67
2023-11-12T04:23:45.137Z,7.12
2023-11-12T04:29:08.990Z,7.00
2023-11-12T04:34:33.346Z,6.93
2023-11-12T04:39:56.425Z,7.00
2023-11-12T04:45:21.321Z,7.38
2023-11-12T04:50:46.632Z,7.62
2023-11-12T04:56:10.363Z,7.32
2023-11-12T05:01:33.696Z,7.81
2023-11-12T05:06:58.205Z,7.14
2023-11-12T05:12:22.190Z,6.91
2023-11-12T05:17:45.358Z,7.06
2023-11-12T05:23:09.747Z,7.02
2023-11-12T05:28:32.869Z,6.79
2023-11-12T05:33:55.817Z,6.44
2023-11-12T05:39:21.013Z,6.14
2023-11-12T05:44:43.984Z,6.16
2023-11-12T05:50:07.963Z,6.03
2023-11-12T05:55:32.309Z,5.93
2023-11-12T06:00:56.688Z,5.98
2023-11-12T06:06:19.707Z,5.61
2023-11-12T06:11:43.944Z,5.29
2023-11-12T06:17:06.849Z,4.67
2023-11-12T06:22:29.819Z,4.34
2023-11-12T06:27:54.159Z,4.46
2023-11-12T06:33:17.280Z,4.33
2023-11-12T06:38:40.276Z,4.89
2023-11-12T06:44:04.833Z,4.09
2023-11-12T06:49:27.763Z,4.59
2023-11-12T06:54:50.920Z,4.95
2023-11-12T07:00:17.792Z,5.85
2023-11-12T07:05:41.384Z,5.92
2023-11-12T07:11:05.022Z,4.79
2023-11-12T07:16:29.313Z,5.11
2023-11-12T07:21:52.606Z,5.58
2023-11-12T07:27:15.599Z,5.27
2023-11-12T07:32:39.881Z,5.48
2023-11-12T07:38:02.915Z,6.33
2023-11-12T07:43:26.364Z,6.15
2023-11-12T07:48:51.811Z,6.65
2023-11-12T07:54:15.250Z,6.77
2023-11-12T07:59:38.310Z,6.75
2023-11-12T08:05:09.468Z,6.83
2023-11-12T08:10:32.878Z,6.69
2023-11-12T08:15:55.817Z,7.00
2023-11-12T08:21:20.350Z,6.90
2023-11-12T08:26:43.472Z,7.30
2023-11-12T08:32:07.535Z,7.31
2023-11-12T08:37:31.977Z,7.48
2023-11-12T08:42:55.321Z,7.35
2023-11-12T08:48:19.235Z,7.45
2023-11-12T08:53:43.828Z,7.60
2023-11-12T08:59:08.391Z,7.37
2023-11-12T09:04:31.437Z,7.42
2023-11-12T09:09:56.648Z,7.59
2023-11-12T09:15:19.707Z,7.34
2023-11-12T09:20:44.501Z,7.57
2023-11-12T09:26:09.540Z,7.72
2023-11-12T09:31:33.031Z,7.73
2023-11-12T09:36:57.377Z,7.94
2023-11-12T09:42:24.793Z,8.22
2023-11-12T09:47:57.725Z,8.92
2023-11-12T09:53:20.789Z,8.85
2023-11-12T09:58:47.390Z,9.48
2023-11-12T10:04:11.007Z,10.03
2023-11-12T10:09:35.984Z,9.44
2023-11-12T10:15:03.344Z,9.65
2023-11-12T10:20:28.263Z,8.82
2023-11-12T10:25:51.442Z,9.27
2023-11-12T10:31:15.879Z,10.00
2023-11-12T10:36:38.891Z,10.90
2023-11-12T10:42:01.973Z,11.07
2023-11-12T10:47:27.644Z,11.03
2023-11-12T10:52:51.192Z,10.94
2023-11-12T10:58:16.211Z,11.78
2023-11-12T11:03:40.583Z,12.26
2023-11-12T11:09:04.090Z,11.97
2023-11-12T11:14:29.138Z,11.77
2023-11-12T11:19:56.931Z,11.04
2023-11-12T11:25:26.260Z,10.64
2023-11-12T11:31:11.768Z,10.54
2023-11-12T11:36:36.713Z,10.57
2023-11-12T11:42:30.109Z,10.87
2023-11-12T11:48:06.313Z,11.84
2023-11-12T11:53:30.667Z,13.94
2023-11-12T11:58:54.814Z,13.72
2023-11-12T12:04:18.729Z,12.08
2023-11-12T12:09:43.066Z,12.16
2023-11-12T12:15:09.161Z,11.65
2023-11-12T12:20:39.828Z,11.39
2023-11-12T12:26:04.376Z,11.18
2023-11-12T12:31:29.823Z,11.06
2023-11-12T12:37:03.308Z,10.73
2023-11-12T12:42:29.041Z,10.69
2023-11-12T12:47:56.792Z,10.13
2023-11-12T12:53:23.458Z,10.17
2023-11-12T12:58:48.313Z,10.75
2023-11-12T13:04:12.887Z,10.63
2023-11-12T13:09:36.406Z,11.13
2023-11-12T13:15:00.775Z,10.98
2023-11-12T13:20:27.917Z,10.65
2023-11-12T13:25:52.730Z,10.46
2023-11-12T13:31:17.048Z,10.31
2023-11-12T13:36:40.741Z,10.23
2023-11-12T13:42:04.702Z,9.99
2023-11-12T13:47:29.081Z,10.20
2023-11-12T13:52:53.242Z,9.94
2023-11-12T13:58:16.715Z,10.06
2023-11-12T14:03:41.861Z,10.13
2023-11-12T14:09:05.208Z,9.89
2023-11-12T14:14:28.315Z,10.23
2023-11-12T14:19:54.570Z,10.52
2023-11-12T14:25:20.211Z,10.34
2023-11-12T14:30:43.467Z,10.15
2023-11-12T14:36:11.987Z,10.25
2023-11-12T14:50:04.321Z,10.02
2023-11-12T14:55:28.833Z,9.86
2023-11-12T15:00:52.533Z,10.19
2023-11-12T15:06:17.159Z,10.40
2023-11-12T15:11:41.718Z,9.78
2023-11-12T15:17:05.655Z,9.94
2023-11-12T15:22:31.472Z,9.72
2023-11-12T15:27:55.197Z,10.25
2023-11-12T15:33:18.393Z,10.50
2023-11-12T15:38:42.901Z,9.95
2023-11-12T15:44:06.934Z,9.69
2023-11-12T15:49:30.069Z,10.06
2023-11-12T15:55:03.758Z,9.99
2023-11-12T16:00:29.931Z,9.33
2023-11-12T16:06:00.962Z,9.49
2023-11-12T16:11:30.487Z,9.50
2023-11-12T16:16:57.814Z,8.73
2023-11-12T16:22:28.130Z,9.22
2023-11-12T16:33:47.230Z,9.43
2023-11-12T16:39:20.904Z,9.37
2023-11-12T16:44:53.121Z,9.45
2023-11-12T16:56:02.968Z,9.05
2023-11-12T17:01:56.639Z,9.16
2023-11-12T17:07:46.574Z,9.24
2023-11-12T17:13:21.228Z,9.39
2023-11-12T17:18:51.435Z,9.38
2023-11-12T17:24:17.561Z,9.52
2023-11-12T17:29:49.797Z,9.71
2023-11-12T17:35:27.664Z,9.45
2023-11-12T17:41:01.068Z,9.00
2023-11-12T17:46:32.997Z,8.82
2023-11-12T17:52:16.095Z,8.77
2023-11-12T17:57:46.596Z,9.21
2023-11-12T18:03:52.805Z,9.55
2023-11-12T18:09:53.722Z,9.40
2023-11-12T18:15:31.211Z,9.44
2023-11-12T18:20:59.707Z,8.73
2023-11-12T18:26:32.390Z,8.37
2023-11-12T18:32:07.869Z,8.43
2023-11-12T18:37:32.675Z,7.90
2023-11-12T18:43:17.930Z,8.66
2023-11-12T18:49:02.785Z,7.48
2023-11-12T18:54:31.288Z,8.22
2023-11-12T19:00:04.952Z,8.88
2023-11-12T19:05:50.715Z,9.15
2023-11-12T19:11:29.440Z,8.56
2023-11-12T19:17:12.488Z,8.87
2023-11-12T19:23:01.638Z,8.98
2023-11-12T19:29:01.517Z,8.65
2023-11-12T19:34:59.065Z,8.47
2023-11-12T19:40:30.222Z,9.03
2023-11-12T19:46:14.617Z,9.01
2023-11-12T19:52:04.166Z,8.61
2023-11-12T19:57:34.609Z,8.80
2023-11-12T20:03:25.604Z,8.15
2023-11-12T20:09:29.392Z,8.31
2023-11-12T20:15:18.299Z,8.49
2023-11-12T20:20:59.582Z,8.43
2023-11-12T20:26:38.472Z,8.58
2023-11-12T20:32:11.071Z,8.57
2023-11-12T20:37:58.025Z,7.86
2023-11-12T20:44:11.905Z,8.44
2023-11-12T20:50:28.879Z,8.41
2023-11-12T20:56:28.339Z,8.30
2023-11-12T21:02:24.661Z,8.27
2023-11-12T21:08:33.745Z,8.41
2023-11-12T21:14:06.287Z,8.07
2023-11-12T21:19:43.631Z,8.24
2023-11-12T21:25:25.816Z,8.70
2023-11-12T21:30:57.968Z,7.95
2023-11-12T21:36:37.490Z,7.12
2023-11-12T21:42:10.420Z,6.35
2023-11-12T21:47:37.278Z,6.79
2023-11-12T21:53:11.010Z,7.60
2023-11-12T21:58:54.786Z,7.98
2023-11-12T22:04:31.268Z,8.18
2023-11-12T22:10:50.781Z,7.05
2023-11-12T22:16:26.366Z,5.90
2023-11-12T22:22:01.269Z,6.91
2023-11-12T22:27:43.754Z,7.02
2023-11-12T22:33:42.694Z,6.02
2023-11-12T22:39:19.536Z,6.70
2023-11-12T22:44:55.608Z,7.18
2023-11-12T22:50:26.354Z,7.75
2023-11-12T22:56:03.768Z,8.04
2023-11-12T23:01:48.209Z,8.04
2023-11-12T23:13:07.794Z,7.67
2023-11-12T23:18:47.207Z,8.29
2023-11-12T23:24:19.551Z,7.79
2023-11-12T23:36:14.647Z,8.44
2023-11-12T23:41:57.403Z,7.22
2023-11-12T23:47:57.536Z,8.26
2023-11-12T23:53:32.728Z,8.56
2023-11-12T23:59:35.897Z,7.50
